Time;durP1;ratioP1;P1;durP2;ratioP2;P2;SDS_P1;SDS_P2;PMS_P1;PMS_P2;Temp;Humidity;BMP_temperature;BMP_pressure;BME280_temperature;BME280_humidity;BME280_pressure;Samples;Min_cycle;Max_cycle;Signal;HPM_P1;HPM_P2
2022/07/03 00:01:50;;;;;;;3.63;2.00;;;;;;;;;;5012651;28;20026;-61
2022/07/03 00:04:15;;;;;;;4.90;2.20;;;;;;;;;;5026225;28;20386;-61
2022/07/03 00:06:40;;;;;;;4.43;2.17;;;;;;;;;;5023608;28;20120;-61
2022/07/03 00:09:06;;;;;;;7.47;2.42;;;;;;;;;;5001939;28;20116;-61
2022/07/03 00:11:32;;;;;;;4.22;2.05;;;;;;;;;;5030347;28;20083;-61
2022/07/03 00:13:58;;;;;;;4.57;2.40;;;;;;;;;;5025693;28;20079;-61
2022/07/03 00:16:24;;;;;;;3.60;2.20;;;;;;;;;;5021417;28;20021;-61
2022/07/03 00:18:50;;;;;;;5.18;2.42;;;;;;;;;;5019304;28;21983;-61
2022/07/03 00:21:45;;;;;;;5.72;2.20;;;;;;;;;;5019394;28;20426;-61
2022/07/03 00:24:40;;;;;;;3.85;2.05;;;;;;;;;;5017984;28;20045;-61
2022/07/03 00:27:08;;;;;;;3.70;2.20;;;;;;;;;;5014576;28;20525;-62
2022/07/03 00:29:38;;;;;;;5.40;2.33;;;;;;;;;;5009767;28;20144;-61
2022/07/03 00:32:06;;;;;;;5.00;2.58;;;;;;;;;;5013215;28;20026;-61
2022/07/03 00:34:32;;;;;;;3.60;2.20;;;;;;;;;;5013629;28;20521;-62
2022/07/03 00:37:00;;;;;;;3.47;2.20;;;;;;;;;;5025072;28;20065;-61
2022/07/03 00:39:26;;;;;;;3.90;2.20;;;;;;;;;;5028166;28;20034;-60
2022/07/03 00:42:02;;;;;;;5.55;2.33;;;;;;;;;;5032586;28;20035;-59
2022/07/03 00:44:34;;;;;;;4.07;2.60;;;;;;;;;;5018209;28;20033;-59
2022/07/03 00:47:02;;;;;;;5.30;2.30;;;;;;;;;;5012073;28;20037;-59
2022/07/03 00:49:31;;;;;;;3.30;2.20;;;;;;;;;;5009025;28;20049;-60
2022/07/03 00:51:58;;;;;;;3.92;2.33;;;;;;;;;;5026806;28;20033;-60
2022/07/03 00:54:24;;;;;;;5.13;2.35;;;;;;;;;;5016984;28;20037;-60
2022/07/03 00:56:51;;;;;;;5.82;2.20;;;;;;;;;;5023764;28;20035;-60
2022/07/03 00:59:17;;;;;;;3.47;2.20;;;;;;;;;;5019348;28;20041;-59
2022/07/03 01:01:45;;;;;;;5.35;2.30;;;;;;;;;;5030201;28;20040;-60
2022/07/03 01:04:47;;;;;;;3.83;2.30;;;;;;;;;;5018964;28;20060;-60
2022/07/03 01:07:41;;;;;;;4.32;2.10;;;;;;;;;;5014264;28;20045;-60
2022/07/03 01:10:28;;;;;;;4.35;2.15;;;;;;;;;;5012061;28;20045;-60
2022/07/03 01:13:00;;;;;;;4.82;2.20;;;;;;;;;;5027453;28;20029;-60
2022/07/03 01:15:40;;;;;;;3.70;2.20;;;;;;;;;;5031422;28;20052;-60
2022/07/03 01:18:31;;;;;;;4.05;2.20;;;;;;;;;;5030717;28;20397;-60
2022/07/03 01:21:08;;;;;;;3.25;2.20;;;;;;;;;;5030607;28;20033;-60
2022/07/03 01:23:54;;;;;;;3.50;2.00;;;;;;;;;;5021757;28;20091;-60
2022/07/03 01:26:24;;;;;;;3.72;2.30;;;;;;;;;;5011975;28;20030;-60
2022/07/03 01:28:49;;;;;;;4.38;2.10;;;;;;;;;;5014114;28;21668;-60
2022/07/03 01:31:19;;;;;;;3.78;2.15;;;;;;;;;;5013803;28;20104;-60
2022/07/03 01:33:49;;;;;;;4.25;2.20;;;;;;;;;;5011593;28;20033;-60
2022/07/03 01:36:16;;;;;;;3.25;2.13;;;;;;;;;;5012360;28;20470;-59
2022/07/03 01:38:42;;;;;;;5.63;2.22;;;;;;;;;;5010740;28;20038;-60
2022/07/03 01:41:12;;;;;;;4.40;2.30;;;;;;;;;;5016453;28;20029;-60
2022/07/03 01:43:55;;;;;;;6.00;2.42;;;;;;;;;;5025522;28;20037;-60
2022/07/03 01:46:27;;;;;;;3.17;2.10;;;;;;;;;;5014787;28;20029;-61
2022/07/03 01:48:54;;;;;;;3.35;2.05;;;;;;;;;;5018503;28;20045;-60
2022/07/03 01:51:23;;;;;;;3.30;2.47;;;;;;;;;;5010541;28;20367;-60
2022/07/03 01:53:49;;;;;;;4.13;2.08;;;;;;;;;;5026830;28;20118;-60
2022/07/03 01:56:16;;;;;;;3.60;2.40;;;;;;;;;;5028863;28;20180;-60
2022/07/03 01:58:41;;;;;;;3.08;2.08;;;;;;;;;;5022345;28;20029;-60
2022/07/03 02:01:22;;;;;;;3.90;2.20;;;;;;;;;;5020526;28;20108;-60
2022/07/03 02:04:03;;;;;;;7.78;2.42;;;;;;;;;;5015479;28;20109;-60
2022/07/03 02:06:58;;;;;;;5.75;2.50;;;;;;;;;;5009046;28;20038;-60
2022/07/03 02:09:36;;;;;;;5.30;2.45;;;;;;;;;;5014122;28;20378;-61
2022/07/03 02:12:02;;;;;;;5.47;2.55;;;;;;;;;;5025206;28;20038;-60
2022/07/03 02:14:39;;;;;;;3.47;2.15;;;;;;;;;;5020627;28;20445;-60
2022/07/03 02:17:20;;;;;;;3.92;2.65;;;;;;;;;;5014957;28;20376;-61
2022/07/03 02:19:53;;;;;;;3.70;2.40;;;;;;;;;;5008761;28;22158;-60
2022/07/03 02:22:24;;;;;;;3.45;2.47;;;;;;;;;;5018182;28;20508;-60
2022/07/03 02:24:49;;;;;;;;;;;;;;;;;;5018604;28;20065;-60
2022/07/03 02:27:28;;;;;;;4.88;2.63;;;;;;;;;;5012328;28;20051;-60
2022/07/03 02:30:02;;;;;;;4.97;2.38;;;;;;;;;;5000815;28;20079;-60
2022/07/03 02:32:30;;;;;;;5.30;2.40;;;;;;;;;;5013188;28;20394;-60
2022/07/03 02:35:05;;;;;;;4.22;2.45;;;;;;;;;;5011619;28;20111;-60
2022/07/03 02:38:09;;;;;;;3.38;2.42;;;;;;;;;;5019349;28;20033;-60
2022/07/03 02:40:40;;;;;;;4.22;2.60;;;;;;;;;;5013547;28;20129;-60
2022/07/03 02:43:14;;;;;;;5.95;2.83;;;;;;;;;;5028716;28;20025;-61
2022/07/03 02:46:48;;;;;;;4.00;2.72;;;;;;;;;;5001667;28;20057;-60
2022/07/03 02:48:54;;;;;;;5.53;2.97;;;;;;;;;;5008737;28;21686;-60
2022/07/03 02:51:22;;;;;;;6.88;2.90;;;;;;;;;;5026755;28;20056;-60
2022/07/03 02:53:58;;;;;;;5.07;3.10;;;;;;;;;;5007636;28;20041;-60
2022/07/03 02:56:33;;;;;;;5.75;3.22;;;;;;;;;;5032278;28;20436;-60
2022/07/03 02:59:13;;;;;;;5.50;3.17;;;;;;;;;;5023450;28;20124;-60
2022/07/03 03:01:55;;;;;;;6.20;3.22;;;;;;;;;;5015432;28;20034;-60
2022/07/03 03:04:30;;;;;;;5.70;3.22;;;;;;;;;;5027771;28;20124;-60
2022/07/03 03:07:03;;;;;;;6.60;3.13;;;;;;;;;;5033907;28;20030;-60
2022/07/03 03:09:45;;;;;;;5.28;3.20;;;;;;;;;;5030770;28;20045;-60
2022/07/03 03:12:12;;;;;;;6.38;3.20;;;;;;;;;;5027787;28;20171;-60
2022/07/03 03:14:54;;;;;;;7.10;3.38;;;;;;;;;;5028431;28;20209;-60
2022/07/03 03:17:28;;;;;;;5.20;3.30;;;;;;;;;;5034469;28;20037;-60
2022/07/03 03:19:59;;;;;;;6.60;3.22;;;;;;;;;;5032212;28;20100;-60
2022/07/03 03:22:46;;;;;;;5.38;3.30;;;;;;;;;;5033569;28;20034;-60
2022/07/03 03:25:11;;;;;;;7.25;3.20;;;;;;;;;;5028255;28;20029;-60
2022/07/03 03:27:37;;;;;;;5.43;3.20;;;;;;;;;;5029201;28;20033;-60
2022/07/03 03:30:06;;;;;;;4.57;3.15;;;;;;;;;;5022748;28;20030;-61
2022/07/03 03:32:34;;;;;;;5.03;2.97;;;;;;;;;;5013604;28;20394;-60
2022/07/03 03:35:00;;;;;;;4.45;3.00;;;;;;;;;;5004028;28;20041;-59
2022/07/03 03:37:26;;;;;;;5.63;3.40;;;;;;;;;;5032541;28;20076;-60
2022/07/03 03:39:51;;;;;;;5.50;3.20;;;;;;;;;;5033061;28;20522;-60
2022/07/03 03:42:16;;;;;;;4.32;3.08;;;;;;;;;;5032716;28;20033;-60
2022/07/03 03:44:42;;;;;;;4.70;3.05;;;;;;;;;;5028851;28;20080;-60
2022/07/03 03:47:07;;;;;;;5.70;3.03;;;;;;;;;;5027169;28;20107;-60
2022/07/03 03:49:33;;;;;;;4.95;2.85;;;;;;;;;;5016939;28;20050;-60
2022/07/03 03:51:58;;;;;;;4.30;3.13;;;;;;;;;;5031000;28;20036;-60
2022/07/03 03:54:24;;;;;;;4.85;3.22;;;;;;;;;;5029571;28;20025;-60
2022/07/03 03:56:49;;;;;;;5.03;3.30;;;;;;;;;;5028931;28;20837;-60
2022/07/03 03:59:15;;;;;;;4.50;3.20;;;;;;;;;;5019131;28;20034;-60
2022/07/03 04:01:40;;;;;;;4.72;3.45;;;;;;;;;;5029035;28;20042;-60
2022/07/03 04:04:06;;;;;;;6.05;3.40;;;;;;;;;;5026593;28;20038;-60
2022/07/03 04:06:31;;;;;;;5.85;3.40;;;;;;;;;;5021366;28;20065;-60
2022/07/03 04:08:57;;;;;;;4.82;3.30;;;;;;;;;;5025533;28;20029;-60
2022/07/03 04:11:22;;;;;;;5.40;3.42;;;;;;;;;;5025143;28;20036;-60
2022/07/03 04:13:48;;;;;;;6.75;4.47;;;;;;;;;;5024792;28;20033;-60
2022/07/03 04:16:13;;;;;;;9.95;4.00;;;;;;;;;;5029700;28;20038;-60
2022/07/03 04:18:39;;;;;;;5.70;3.97;;;;;;;;;;5030876;28;20039;-60
2022/07/03 04:21:04;;;;;;;5.30;3.53;;;;;;;;;;5026243;28;20044;-60
2022/07/03 04:23:30;;;;;;;5.43;3.53;;;;;;;;;;5031186;28;20449;-60
2022/07/03 04:26:01;;;;;;;6.60;3.72;;;;;;;;;;5017875;28;20038;-60
2022/07/03 04:28:27;;;;;;;7.20;3.58;;;;;;;;;;5028260;28;20402;-60
2022/07/03 04:30:52;;;;;;;5.53;3.72;;;;;;;;;;5027852;28;20048;-60
2022/07/03 04:33:18;;;;;;;6.35;3.47;;;;;;;;;;5032501;28;20033;-60
2022/07/03 04:35:43;;;;;;;6.97;3.70;;;;;;;;;;5012373;28;20032;-60
2022/07/03 04:38:09;;;;;;;5.88;3.60;;;;;;;;;;5014068;28;20532;-60
2022/07/03 04:40:34;;;;;;;7.82;3.90;;;;;;;;;;5027036;28;20037;-61
2022/07/03 04:42:59;;;;;;;6.60;3.78;;;;;;;;;;5030625;28;20030;-60
2022/07/03 04:45:25;;;;;;;5.53;3.38;;;;;;;;;;5029170;28;20112;-60
2022/07/03 04:47:50;;;;;;;5.75;3.33;;;;;;;;;;5032082;28;20631;-60
2022/07/03 04:50:16;;;;;;;5.78;3.20;;;;;;;;;;5030608;28;20113;-60
2022/07/03 04:52:42;;;;;;;7.47;3.47;;;;;;;;;;5030383;28;20049;-60
2022/07/03 04:55:09;;;;;;;6.97;3.28;;;;;;;;;;5028339;28;20112;-60
2022/07/03 04:57:35;;;;;;;4.90;3.40;;;;;;;;;;5025158;28;20045;-60
2022/07/03 05:00:01;;;;;;;5.65;3.47;;;;;;;;;;5021418;28;20112;-60
2022/07/03 05:02:26;;;;;;;7.10;3.50;;;;;;;;;;5030303;28;20036;-60
2022/07/03 05:04:51;;;;;;;8.73;3.50;;;;;;;;;;5027770;28;20664;-60
2022/07/03 05:07:17;;;;;;;5.68;3.30;;;;;;;;;;5031834;28;20033;-60
2022/07/03 05:09:42;;;;;;;7.35;3.33;;;;;;;;;;5028120;28;20454;-60
2022/07/03 05:12:08;;;;;;;5.53;3.42;;;;;;;;;;5027386;28;20478;-60
2022/07/03 05:14:33;;;;;;;4.97;3.50;;;;;;;;;;5029318;28;20048;-60
2022/07/03 05:16:58;;;;;;;6.15;3.60;;;;;;;;;;5031279;28;20029;-60
2022/07/03 05:19:24;;;;;;;6.22;3.72;;;;;;;;;;5030836;28;20033;-60
2022/07/03 05:21:49;;;;;;;7.50;3.70;;;;;;;;;;5029020;28;20025;-60
2022/07/03 05:24:14;;;;;;;5.07;3.50;;;;;;;;;;5027146;28;20033;-60
2022/07/03 05:26:40;;;;;;;5.25;3.47;;;;;;;;;;5028173;28;20482;-60
2022/07/03 05:29:05;;;;;;;7.25;3.55;;;;;;;;;;5024507;28;20026;-60
2022/07/03 05:31:31;;;;;;;7.65;3.53;;;;;;;;;;5023927;28;20025;-60
2022/07/03 05:33:56;;;;;;;7.63;4.20;;;;;;;;;;5021879;28;20477;-60
2022/07/03 05:36:22;;;;;;;6.95;4.10;;;;;;;;;;5031137;28;20394;-60
2022/07/03 05:41:31;;;;;;;6.13;4.00;;;;;;;;;;5027641;28;20063;-59
2022/07/03 05:43:57;;;;;;;6.03;4.10;;;;;;;;;;5029410;28;20080;-59
2022/07/03 05:46:23;;;;;;;6.22;4.10;;;;;;;;;;5030055;28;20501;-60
2022/07/03 05:48:48;;;;;;;6.93;4.13;;;;;;;;;;5021110;28;20077;-60
2022/07/03 05:51:14;;;;;;;6.40;4.22;;;;;;;;;;5030117;28;20061;-61
2022/07/03 05:53:39;;;;;;;9.88;4.35;;;;;;;;;;5030080;28;20049;-60
2022/07/03 05:56:04;;;;;;;10.70;4.57;;;;;;;;;;5028738;28;20049;-60
2022/07/03 05:58:30;;;;;;;7.65;4.50;;;;;;;;;;5041811;28;20041;-60
2022/07/03 06:00:55;;;;;;;10.75;4.50;;;;;;;;;;5021113;28;20025;-59
2022/07/03 06:03:20;;;;;;;9.20;4.93;;;;;;;;;;5027556;28;20029;-59
2022/07/03 06:05:46;;;;;;;9.82;5.07;;;;;;;;;;5029898;28;20036;-60
2022/07/03 06:08:11;;;;;;;8.98;4.50;;;;;;;;;;5028956;28;20034;-59
2022/07/03 06:10:37;;;;;;;8.32;4.95;;;;;;;;;;5029391;28;20116;-60
2022/07/03 06:13:02;;;;;;;8.52;5.10;;;;;;;;;;5027157;28;20049;-59
2022/07/03 06:15:28;;;;;;;7.38;5.00;;;;;;;;;;5022978;28;20382;-60
2022/07/03 06:17:53;;;;;;;8.40;4.90;;;;;;;;;;5021815;28;20053;-60
2022/07/03 06:20:18;;;;;;;8.45;4.85;;;;;;;;;;5028358;28;20041;-60
2022/07/03 06:22:44;;;;;;;7.63;4.70;;;;;;;;;;5021795;28;20037;-60
2022/07/03 06:25:10;;;;;;;6.32;4.78;;;;;;;;;;5026139;28;20366;-62
2022/07/03 06:27:35;;;;;;;6.97;4.53;;;;;;;;;;5021067;28;20030;-61
2022/07/03 06:30:01;;;;;;;8.60;4.97;;;;;;;;;;5017616;28;20036;-61
2022/07/03 06:32:26;;;;;;;9.02;5.20;;;;;;;;;;5026720;28;20036;-61
2022/07/03 06:34:52;;;;;;;9.18;4.97;;;;;;;;;;5033509;28;20033;-60
2022/07/03 06:37:17;;;;;;;7.72;4.25;;;;;;;;;;5034806;28;20032;-60
2022/07/03 06:39:43;;;;;;;11.00;4.82;;;;;;;;;;5033551;28;20458;-60
2022/07/03 06:42:09;;;;;;;9.02;4.90;;;;;;;;;;5031498;28;20033;-61
2022/07/03 06:44:34;;;;;;;7.47;4.65;;;;;;;;;;5032764;28;20033;-61
2022/07/03 06:47:03;;;;;;;10.38;5.00;;;;;;;;;;5029236;28;20033;-60
2022/07/03 06:49:29;;;;;;;9.75;5.45;;;;;;;;;;5034101;28;20191;-60
2022/07/03 06:51:54;;;;;;;10.50;4.60;;;;;;;;;;5032655;28;20076;-61
2022/07/03 06:54:20;;;;;;;9.63;4.75;;;;;;;;;;5031860;28;20037;-60
2022/07/03 06:56:45;;;;;;;6.47;4.60;;;;;;;;;;5034403;28;20528;-60
2022/07/03 06:59:10;;;;;;;8.52;4.60;;;;;;;;;;5032482;28;20029;-64
2022/07/03 07:01:36;;;;;;;7.60;4.75;;;;;;;;;;5033828;28;20064;-61
2022/07/03 07:04:02;;;;;;;7.63;4.82;;;;;;;;;;5034154;28;20433;-61
2022/07/03 07:06:28;;;;;;;6.80;4.90;;;;;;;;;;5031421;28;20116;-61
2022/07/03 07:08:53;;;;;;;9.88;4.95;;;;;;;;;;5033325;28;20108;-60
2022/07/03 07:11:19;;;;;;;7.10;4.63;;;;;;;;;;5033331;28;20557;-61
2022/07/03 07:13:45;;;;;;;5.82;4.32;;;;;;;;;;5031167;28;20030;-60
2022/07/03 07:16:10;;;;;;;6.80;4.65;;;;;;;;;;5032581;28;20564;-61
2022/07/03 07:18:36;;;;;;;7.93;5.00;;;;;;;;;;5034753;28;20025;-61
2022/07/03 07:21:01;;;;;;;8.32;4.68;;;;;;;;;;5029319;28;20434;-60
2022/07/03 07:23:26;;;;;;;7.70;4.30;;;;;;;;;;5034653;28;20036;-60
2022/07/03 07:25:52;;;;;;;6.78;4.40;;;;;;;;;;5032325;28;20055;-60
2022/07/03 07:28:18;;;;;;;8.27;4.13;;;;;;;;;;5033583;28;20030;-61
2022/07/03 07:30:43;;;;;;;6.93;3.90;;;;;;;;;;5032364;28;20462;-61
2022/07/03 07:33:09;;;;;;;9.57;4.00;;;;;;;;;;5021164;28;20046;-61
2022/07/03 07:35:35;;;;;;;6.20;3.50;;;;;;;;;;5031319;28;20470;-61
2022/07/03 07:38:01;;;;;;;8.18;4.07;;;;;;;;;;5033202;28;20021;-60
2022/07/03 07:40:26;;;;;;;6.47;3.95;;;;;;;;;;5029090;28;20064;-60
2022/07/03 07:42:52;;;;;;;7.45;3.70;;;;;;;;;;5016400;28;20045;-61
2022/07/03 07:45:17;;;;;;;8.32;4.10;;;;;;;;;;5031761;28;20065;-60
2022/07/03 07:47:43;;;;;;;9.27;3.72;;;;;;;;;;5033008;28;20057;-61
2022/07/03 07:50:09;;;;;;;7.28;4.03;;;;;;;;;;5030290;28;20593;-60
2022/07/03 07:52:35;;;;;;;5.10;3.42;;;;;;;;;;5019582;28;20061;-60
2022/07/03 07:55:00;;;;;;;7.45;4.05;;;;;;;;;;5023023;28;20119;-61
2022/07/03 07:57:34;;;;;;;7.40;4.15;;;;;;;;;;5030282;28;20041;-61
2022/07/03 07:59:59;;;;;;;6.07;3.80;;;;;;;;;;5022649;28;20040;-61
2022/07/03 08:07:52;;;;;;;5.75;3.45;;;;;;;;;;5027964;28;20037;-54
2022/07/03 08:10:18;;;;;;;5.72;3.58;;;;;;;;;;5015865;28;20034;-57
2022/07/03 08:12:43;;;;;;;6.32;4.03;;;;;;;;;;5026686;28;20127;-59
2022/07/03 08:15:09;;;;;;;6.72;3.78;;;;;;;;;;5015515;28;20479;-55
2022/07/03 08:17:35;;;;;;;5.63;3.80;;;;;;;;;;5024899;28;20017;-55
2022/07/03 08:20:00;;;;;;;8.65;4.13;;;;;;;;;;5022897;28;20086;-56
2022/07/03 08:22:29;;;;;;;8.65;4.10;;;;;;;;;;5006629;28;20032;-58
2022/07/03 08:24:54;;;;;;;6.65;3.95;;;;;;;;;;5030427;28;20129;-57
2022/07/03 08:27:19;;;;;;;7.38;3.70;;;;;;;;;;5033548;28;20112;-55
2022/07/03 08:29:45;;;;;;;8.63;3.80;;;;;;;;;;5032674;28;20083;-59
2022/07/03 08:32:10;;;;;;;8.95;4.22;;;;;;;;;;5029980;28;20025;-58
2022/07/03 08:34:36;;;;;;;5.10;3.60;;;;;;;;;;5030026;28;20044;-57
2022/07/03 08:37:02;;;;;;;7.22;4.38;;;;;;;;;;5026964;28;20029;-58
2022/07/03 08:39:28;;;;;;;10.13;4.30;;;;;;;;;;5014191;28;20079;-59
2022/07/03 08:41:55;;;;;;;6.43;4.07;;;;;;;;;;5013142;28;20029;-56
2022/07/03 08:44:23;;;;;;;7.10;4.05;;;;;;;;;;5006666;28;20034;-58
2022/07/03 08:46:49;;;;;;;6.55;3.63;;;;;;;;;;5029136;28;20030;-57
2022/07/03 08:49:17;;;;;;;5.68;3.60;;;;;;;;;;5028662;28;20050;-58
2022/07/03 08:51:45;;;;;;;7.05;3.65;;;;;;;;;;5032237;28;20061;-57
2022/07/03 08:54:10;;;;;;;8.93;3.85;;;;;;;;;;5025262;28;20029;-59
2022/07/03 08:56:36;;;;;;;11.10;4.22;;;;;;;;;;4995086;28;20060;-55
2022/07/03 08:59:04;;;;;;;7.18;3.50;;;;;;;;;;5029152;28;20033;-57
2022/07/03 09:01:32;;;;;;;7.35;3.42;;;;;;;;;;5026834;28;20037;-65
2022/07/03 09:03:58;;;;;;;12.15;4.32;;;;;;;;;;5028738;28;20042;-64
2022/07/03 09:06:23;;;;;;;10.00;3.67;;;;;;;;;;5031534;28;20463;-63
2022/07/03 09:08:50;;;;;;;7.45;3.67;;;;;;;;;;5031732;28;20116;-63
2022/07/03 09:11:16;;;;;;;8.90;3.70;;;;;;;;;;5013441;28;20061;-63
2022/07/03 09:13:42;;;;;;;6.20;4.05;;;;;;;;;;5032548;28;20068;-64
2022/07/03 09:16:14;;;;;;;7.20;3.83;;;;;;;;;;5031607;28;20060;-64
2022/07/03 09:18:42;;;;;;;7.40;3.38;;;;;;;;;;5013562;28;20038;-63
2022/07/03 09:21:11;;;;;;;6.75;3.53;;;;;;;;;;5011811;28;20032;-64
2022/07/03 09:23:39;;;;;;;6.63;3.70;;;;;;;;;;5011987;28;20083;-63
2022/07/03 09:26:05;;;;;;;7.28;3.90;;;;;;;;;;5011645;28;20431;-64
2022/07/03 09:28:43;;;;;;;5.68;3.20;;;;;;;;;;5027784;28;20037;-64
2022/07/03 09:31:10;;;;;;;5.75;3.40;;;;;;;;;;5017792;28;20041;-64
2022/07/03 09:33:49;;;;;;;9.20;3.40;;;;;;;;;;5012198;28;20029;-64
2022/07/03 09:36:14;;;;;;;7.43;3.40;;;;;;;;;;5012374;28;20042;-64
2022/07/03 09:38:45;;;;;;;7.72;3.30;;;;;;;;;;5012142;28;20484;-63
2022/07/03 09:41:10;;;;;;;12.25;3.85;;;;;;;;;;5023659;28;20029;-63
2022/07/03 09:43:41;;;;;;;7.18;3.63;;;;;;;;;;5032122;28;20095;-64
2022/07/03 09:46:07;;;;;;;8.18;3.45;;;;;;;;;;5031080;28;20123;-63
2022/07/03 09:48:34;;;;;;;8.05;3.40;;;;;;;;;;5031636;28;20125;-64
2022/07/03 09:51:13;;;;;;;8.18;3.10;;;;;;;;;;5028347;28;20037;-64
2022/07/03 09:53:53;;;;;;;7.05;3.00;;;;;;;;;;5031917;28;20033;-64
2022/07/03 09:56:20;;;;;;;5.47;3.15;;;;;;;;;;5032197;28;20037;-63
2022/07/03 09:59:14;;;;;;;8.88;3.08;;;;;;;;;;5031909;28;20037;-63
2022/07/03 10:01:45;;;;;;;6.13;3.30;;;;;;;;;;5030866;28;20481;-63
2022/07/03 10:04:12;;;;;;;5.78;3.60;;;;;;;;;;5030276;28;20033;-64
2022/07/03 10:06:54;;;;;;;6.93;3.10;;;;;;;;;;5031750;28;20360;-63
2022/07/03 10:09:23;;;;;;;8.05;3.00;;;;;;;;;;5031842;28;20112;-63
2022/07/03 10:11:48;;;;;;;8.38;2.90;;;;;;;;;;5015308;28;20042;-65
2022/07/03 10:14:16;;;;;;;8.82;3.15;;;;;;;;;;4993633;28;20036;-64
2022/07/03 10:16:42;;;;;;;7.40;3.03;;;;;;;;;;4994370;28;20065;-64
2022/07/03 10:19:19;;;;;;;5.65;2.75;;;;;;;;;;5010811;28;20490;-64
2022/07/03 10:21:52;;;;;;;6.47;2.60;;;;;;;;;;5026345;28;20026;-63
2022/07/03 10:24:22;;;;;;;6.95;2.65;;;;;;;;;;5028711;28;20096;-63
2022/07/03 10:26:49;;;;;;;5.53;3.67;;;;;;;;;;5030525;28;20061;-64
2022/07/03 10:29:15;;;;;;;5.57;2.65;;;;;;;;;;5030787;28;20076;-65
2022/07/03 10:31:45;;;;;;;3.90;2.40;;;;;;;;;;5028504;28;20033;-63
2022/07/03 10:34:10;;;;;;;6.32;2.63;;;;;;;;;;5030288;28;20477;-63
2022/07/03 10:36:37;;;;;;;4.43;2.58;;;;;;;;;;5031197;28;20030;-63
2022/07/03 10:39:06;;;;;;;3.67;2.35;;;;;;;;;;5012854;28;20382;-64
2022/07/03 10:47:41;;;;;;;5.22;2.63;;;;;;;;;;5010580;28;20433;-63
2022/07/03 10:50:11;;;;;;;7.40;2.80;;;;;;;;;;5014332;28;20532;-63
2022/07/03 10:52:37;;;;;;;4.63;2.70;;;;;;;;;;5031132;28;20034;-64
2022/07/03 10:55:03;;;;;;;7.00;2.33;;;;;;;;;;5028411;28;20061;-63
2022/07/03 10:57:29;;;;;;;7.90;2.30;;;;;;;;;;5013215;28;20037;-63
2022/07/03 10:59:54;;;;;;;6.10;2.40;;;;;;;;;;5029690;28;20083;-64
2022/07/03 11:02:27;;;;;;;5.68;3.10;;;;;;;;;;5030908;28;20109;-63
2022/07/03 11:04:58;;;;;;;6.13;2.72;;;;;;;;;;5030342;28;20080;-64
2022/07/03 11:07:24;;;;;;;9.05;2.92;;;;;;;;;;5031395;28;20056;-63
2022/07/03 11:10:28;;;;;;;6.13;2.83;;;;;;;;;;5029550;28;20033;-63
2022/07/03 11:13:04;;;;;;;4.93;2.22;;;;;;;;;;5030575;28;20033;-64
2022/07/03 11:15:41;;;;;;;5.63;2.65;;;;;;;;;;5030843;28;20482;-63
2022/07/03 11:18:27;;;;;;;4.18;2.30;;;;;;;;;;5033352;28;20064;-63
2022/07/03 11:20:52;;;;;;;5.63;2.38;;;;;;;;;;5033701;28;20025;-64
2022/07/03 11:23:27;;;;;;;3.97;2.20;;;;;;;;;;5033637;28;20036;-63
2022/07/03 11:25:58;;;;;;;4.78;2.03;;;;;;;;;;5034293;28;20029;-63
2022/07/03 11:28:32;;;;;;;4.47;2.25;;;;;;;;;;5034745;28;20029;-65
2022/07/03 11:33:50;;;;;;;7.43;2.33;;;;;;;;;;5034493;28;20110;-62
2022/07/03 11:36:15;;;;;;;;;;;;;;;;;;5033934;28;20164;-64
2022/07/03 11:38:46;;;;;;;3.88;2.20;;;;;;;;;;5034442;28;20391;-64
2022/07/03 11:41:15;;;;;;;4.45;2.10;;;;;;;;;;5032572;28;20406;-64
2022/07/03 11:43:47;;;;;;;7.03;2.28;;;;;;;;;;5034382;28;20025;-64
2022/07/03 11:46:17;;;;;;;4.72;2.10;;;;;;;;;;5033354;28;20470;-65
2022/07/03 11:48:43;;;;;;;5.60;2.25;;;;;;;;;;5034384;28;20071;-63
2022/07/03 11:51:08;;;;;;;5.68;2.22;;;;;;;;;;5029910;28;20045;-64
2022/07/03 11:53:36;;;;;;;4.47;2.10;;;;;;;;;;5033989;28;20053;-64
2022/07/03 11:56:03;;;;;;;5.53;2.20;;;;;;;;;;5033062;28;20439;-65
2022/07/03 11:58:59;;;;;;;6.07;2.40;;;;;;;;;;5033995;28;20033;-63
2022/07/03 12:01:26;;;;;;;4.20;2.40;;;;;;;;;;5018218;28;20512;-63
2022/07/03 12:03:53;;;;;;;2.85;1.80;;;;;;;;;;5033614;28;20462;-64
2022/07/03 12:06:19;;;;;;;4.00;1.88;;;;;;;;;;5022735;28;20025;-64
2022/07/03 12:08:48;;;;;;;4.38;2.50;;;;;;;;;;5014023;28;20022;-63
2022/07/03 12:11:16;;;;;;;5.85;2.45;;;;;;;;;;5028202;28;20029;-64
2022/07/03 12:13:42;;;;;;;3.97;2.00;;;;;;;;;;5033568;28;20034;-64
2022/07/03 12:16:10;;;;;;;6.50;2.58;;;;;;;;;;5032739;28;20107;-63
2022/07/03 12:18:50;;;;;;;5.70;2.20;;;;;;;;;;5033679;28;20032;-64
2022/07/03 12:21:16;;;;;;;4.38;2.22;;;;;;;;;;4998856;28;20038;-64
2022/07/03 12:23:51;;;;;;;2.95;2.00;;;;;;;;;;5013482;28;20449;-63
2022/07/03 12:26:33;;;;;;;5.80;2.20;;;;;;;;;;5012731;28;20029;-63
2022/07/03 12:29:01;;;;;;;4.07;2.05;;;;;;;;;;5012952;28;20040;-64
2022/07/03 12:31:28;;;;;;;3.70;1.90;;;;;;;;;;5025227;28;20034;-62
2022/07/03 12:33:54;;;;;;;3.90;2.15;;;;;;;;;;5033007;28;20433;-63
2022/07/03 12:36:20;;;;;;;5.07;2.33;;;;;;;;;;5032138;28;20645;-63
2022/07/03 12:38:51;;;;;;;4.72;2.20;;;;;;;;;;5032730;28;20038;-62
2022/07/03 12:41:16;;;;;;;4.82;2.00;;;;;;;;;;5016123;28;20558;-63
2022/07/03 12:43:45;;;;;;;6.63;2.00;;;;;;;;;;5013098;28;20057;-62
2022/07/03 12:46:31;;;;;;;6.88;2.03;;;;;;;;;;5012154;28;20026;-63
2022/07/03 12:48:58;;;;;;;4.35;2.10;;;;;;;;;;5017352;28;20183;-64
2022/07/03 12:51:57;;;;;;;4.05;1.90;;;;;;;;;;5029853;28;20034;-64
2022/07/03 12:54:32;;;;;;;4.03;2.28;;;;;;;;;;4990389;28;20061;-62
2022/07/03 12:59:16;;;;;;;4.45;1.80;;;;;;;;;;5018048;28;20029;-63
2022/07/03 13:00:12;;;;;;;3.92;1.80;;;;;;;;;;5030105;28;20044;-62
2022/07/03 13:02:39;;;;;;;4.30;1.95;;;;;;;;;;5021030;28;20036;-63
2022/07/03 13:05:18;;;;;;;2.83;1.90;;;;;;;;;;5011706;28;20125;-63
2022/07/03 13:07:46;;;;;;;5.70;2.10;;;;;;;;;;5024038;28;20034;-63
2022/07/03 13:10:14;;;;;;;3.60;2.00;;;;;;;;;;5029507;28;20036;-62
2022/07/03 13:12:51;;;;;;;4.40;1.80;;;;;;;;;;5018110;28;20029;-64
2022/07/03 13:15:19;;;;;;;4.50;1.90;;;;;;;;;;5011131;28;20124;-64
2022/07/03 13:17:53;;;;;;;6.90;1.70;;;;;;;;;;5025967;28;20083;-63
2022/07/03 13:20:39;;;;;;;2.42;1.65;;;;;;;;;;5030511;28;20041;-63
2022/07/03 13:23:05;;;;;;;2.45;1.60;;;;;;;;;;5025921;28;20041;-64
2022/07/03 13:25:33;;;;;;;4.40;1.90;;;;;;;;;;5025868;28;20037;-63
2022/07/03 13:28:08;;;;;;;4.28;1.88;;;;;;;;;;5029524;28;20064;-63
2022/07/03 13:30:34;;;;;;;4.07;1.60;;;;;;;;;;5021016;28;20037;-65
2022/07/03 13:33:00;;;;;;;3.63;1.73;;;;;;;;;;5031093;28;20095;-64
2022/07/03 13:35:26;;;;;;;2.95;1.80;;;;;;;;;;5027825;28;20110;-62
2022/07/03 13:37:51;;;;;;;3.67;1.73;;;;;;;;;;5031826;28;20371;-63
2022/07/03 13:40:17;;;;;;;2.80;1.75;;;;;;;;;;5027528;28;20116;-65
2022/07/03 13:42:42;;;;;;;5.15;1.60;;;;;;;;;;5032041;28;20029;-65
2022/07/03 13:45:08;;;;;;;6.10;1.60;;;;;;;;;;5029776;28;20025;-66
2022/07/03 13:47:33;;;;;;;3.70;1.70;;;;;;;;;;5029155;28;20418;-64
2022/07/03 13:49:59;;;;;;;3.17;1.50;;;;;;;;;;5013108;28;20123;-65
2022/07/03 13:52:24;;;;;;;3.15;1.90;;;;;;;;;;5027433;28;20072;-65
2022/07/03 13:54:50;;;;;;;3.63;1.42;;;;;;;;;;5030263;28;20025;-65
2022/07/03 13:57:16;;;;;;;1.95;1.30;;;;;;;;;;5030236;28;20430;-64
2022/07/03 13:59:41;;;;;;;3.85;1.60;;;;;;;;;;5011145;28;20029;-64
2022/07/03 14:02:07;;;;;;;2.75;1.40;;;;;;;;;;5030877;28;20026;-64
2022/07/03 14:04:32;;;;;;;2.15;1.52;;;;;;;;;;5028397;28;20707;-64
2022/07/03 14:06:58;;;;;;;5.03;1.60;;;;;;;;;;5030508;28;20034;-64
2022/07/03 14:09:24;;;;;;;2.90;1.60;;;;;;;;;;5027003;28;20648;-63
2022/07/03 14:11:49;;;;;;;1.77;1.60;;;;;;;;;;5023405;28;20083;-65
2022/07/03 14:14:15;;;;;;;1.95;1.40;;;;;;;;;;5029240;28;20057;-64
2022/07/03 14:16:41;;;;;;;2.40;1.40;;;;;;;;;;5020986;28;20105;-64
2022/07/03 14:19:07;;;;;;;4.90;1.58;;;;;;;;;;4998593;28;20037;-64
2022/07/03 14:21:33;;;;;;;1.83;1.30;;;;;;;;;;5031200;28;20028;-62
2022/07/03 14:23:59;;;;;;;3.50;1.60;;;;;;;;;;5028709;28;20061;-63
2022/07/03 14:32:38;;;;;;;3.63;1.70;;;;;;;;;;5031304;28;20037;-64
2022/07/03 14:34:40;;;;;;;2.47;1.70;;;;;;;;;;5019710;28;20045;-64
2022/07/03 14:37:05;;;;;;;2.47;1.63;;;;;;;;;;5025705;28;20112;-63
2022/07/03 14:39:31;;;;;;;2.90;1.60;;;;;;;;;;5031196;28;20105;-63
2022/07/03 14:41:56;;;;;;;3.15;1.63;;;;;;;;;;5030623;28;20034;-63
2022/07/03 14:44:24;;;;;;;2.28;1.60;;;;;;;;;;5030365;28;20385;-63
2022/07/03 14:46:52;;;;;;;3.17;1.80;;;;;;;;;;5027229;28;20112;-64
2022/07/03 14:49:18;;;;;;;3.10;1.77;;;;;;;;;;5028378;28;21017;-64
2022/07/03 14:51:44;;;;;;;2.08;1.70;;;;;;;;;;5033491;28;20025;-64
2022/07/03 14:54:10;;;;;;;3.28;1.60;;;;;;;;;;5032982;28;20406;-64
2022/07/03 14:56:40;;;;;;;2.60;1.50;;;;;;;;;;5022124;28;20116;-64
2022/07/03 14:59:09;;;;;;;2.50;1.77;;;;;;;;;;5015064;28;20132;-64
2022/07/03 15:01:37;;;;;;;2.45;1.60;;;;;;;;;;5015230;28;20040;-62
2022/07/03 15:04:19;;;;;;;11.43;1.65;;;;;;;;;;5033998;28;20488;-62
2022/07/03 15:06:48;;;;;;;3.03;1.55;;;;;;;;;;5021793;28;20121;-63
2022/07/03 15:09:26;;;;;;;3.13;1.70;;;;;;;;;;5033984;28;20025;-62
2022/07/03 15:14:49;;;;;;;4.72;1.60;;;;;;;;;;5032718;28;20462;-64
2022/07/03 15:17:15;;;;;;;2.35;1.50;;;;;;;;;;5027481;28;20425;-64
2022/07/03 15:19:43;;;;;;;1.92;1.40;;;;;;;;;;5014580;28;20423;-64
2022/07/03 15:22:10;;;;;;;1.42;1.33;;;;;;;;;;5016409;28;20080;-64